Faneromeni — SVKG — position and weather

sailwx.info

Track history (hours):
 
Tides and Currents Weather Stations Pressure Air Temp Water Temp Dewpoint Dewpoint Depression Visibility Wind Speed Wind Dir Waves Ship Positions

Faneromeni

Last reported at 2014-Nov-24 22:15 UTC. Time now 2014-Nov-25 23:12 UTC.
Position N 41°02' E 029°00'.

Length 230 m; draft 7.5 m.

Type: Cargo ship. MMSI: 240576000.

Date/timePositionNaut miles runAvg speedWind from/ knotsBaromVisibWave heightAir tempDewpointWater temp
2014-Nov-24 22:15N 41°02' E 029°00'6 8.5
2014-Nov-24 21:33N 40°56' E 028°59'1010.3
2014-Nov-24 20:33N 40°51' E 028°47'1511.9
2014-Nov-24 19:16N 40°49' E 028°27'218 7.1
2014-Nov-23 12:30N 37°50' E 025°46'1511.0
2014-Nov-23 11:06N 37°36' E 025°53'610.1
2014-Nov-23 10:33N 37°31' E 025°55'1010.0
2014-Nov-23 09:33N 37°22' E 025°60'1111.2
2014-Nov-23 08:33N 37°12' E 026°06'1110.6
2014-Nov-23 07:33N 37°02' E 026°11'1010.2
2014-Nov-23 06:31N 36°53' E 026°18'1010.8
2014-Nov-23 05:33N 36°46' E 026°28'1010.3
2014-Nov-23 04:33N 36°39' E 026°37'1110.0
2014-Nov-23 03:26N 36°31' E 026°47'29610.1
2014-Nov-21 22:05N 35°54' E 032°51'  
Track history (hours):
 
Tides and Currents Weather Stations Pressure Air Temp Water Temp Dewpoint Dewpoint Depression Visibility Wind Speed Wind Dir Waves Ship Positions

Faneromeni

Last reported at 2014-Nov-24 22:15 UTC. Time now 2014-Nov-25 23:12 UTC.
Position N 41°02' E 029°00'.

Length 230 m; draft 7.5 m.

Type: Cargo ship. MMSI: 240576000.

Date/timePositionNaut miles runAvg speedWind from/ knotsBaromVisibWave heightAir tempDewpointWater temp
2014-Nov-24 22:15N 41°02' E 029°00'6 8.5
2014-Nov-24 21:33N 40°56' E 028°59'1010.3
2014-Nov-24 20:33N 40°51' E 028°47'1511.9
2014-Nov-24 19:16N 40°49' E 028°27'218 7.1
2014-Nov-23 12:30N 37°50' E 025°46'1511.0
2014-Nov-23 11:06N 37°36' E 025°53'610.1
2014-Nov-23 10:33N 37°31' E 025°55'1010.0
2014-Nov-23 09:33N 37°22' E 025°60'1111.2
2014-Nov-23 08:33N 37°12' E 026°06'1110.6
2014-Nov-23 07:33N 37°02' E 026°11'1010.2
2014-Nov-23 06:31N 36°53' E 026°18'1010.8
2014-Nov-23 05:33N 36°46' E 026°28'1010.3
2014-Nov-23 04:33N 36°39' E 026°37'1110.0
2014-Nov-23 03:26N 36°31' E 026°47'29610.1
2014-Nov-21 22:05N 35°54' E 032°51'  

Dump ship's entire track history